createdAt,value
2018-07-31T00:00:36.834Z,61.86
2018-07-31T00:06:10.044Z,61.95
2018-07-31T00:11:43.328Z,62.02
2018-07-31T00:17:16.484Z,60.69
2018-07-31T00:22:49.836Z,60.11
2018-07-31T00:28:23.194Z,59.63
2018-07-31T00:33:56.292Z,58.86
2018-07-31T00:39:29.345Z,59.08
2018-07-31T00:45:02.601Z,59.56
2018-07-31T00:50:35.565Z,59.56
2018-07-31T00:56:08.607Z,59.47
2018-07-31T01:01:41.646Z,59.40
2018-07-31T01:07:14.854Z,59.56
2018-07-31T01:12:48.071Z,60.14
2018-07-31T01:18:21.285Z,60.44
2018-07-31T01:23:54.439Z,60.34
2018-07-31T01:29:31.092Z,60.79
2018-07-31T01:35:04.302Z,61.08
2018-07-31T01:40:37.709Z,61.86
2018-07-31T01:46:10.851Z,62.02
2018-07-31T01:51:43.908Z,62.50
2018-07-31T01:57:16.861Z,62.79
2018-07-31T02:02:50.091Z,64.14
2018-07-31T02:08:23.200Z,65.30
2018-07-31T02:13:56.496Z,65.95
2018-07-31T02:19:29.609Z,67.11
2018-07-31T02:25:02.816Z,67.88
2018-07-31T02:30:35.851Z,67.65
2018-07-31T02:36:08.960Z,69.49
2018-07-31T02:41:42.138Z,70.45
2018-07-31T02:47:15.196Z,70.54
2018-07-31T02:52:48.611Z,70.26
2018-07-31T02:58:21.787Z,70.74
2018-07-31T03:03:54.998Z,71.86
2018-07-31T03:09:28.417Z,71.58
2018-07-31T03:15:01.649Z,72.15
2018-07-31T03:20:34.792Z,72.63
2018-07-31T03:26:07.997Z,72.92
2018-07-31T03:31:41.456Z,73.11
2018-07-31T03:37:14.572Z,73.57
2018-07-31T03:42:47.871Z,73.85
2018-07-31T03:48:21.382Z,74.24
2018-07-31T03:53:54.486Z,74.01
2018-07-31T03:59:27.911Z,74.20
